Time;durP1;ratioP1;P1;durP2;ratioP2;P2;SDS_P1;SDS_P2;PMS_P1;PMS_P2;Temp;Humidity;BMP_temperature;BMP_pressure;BME280_temperature;BME280_humidity;BME280_pressure;Samples;Min_cycle;Max_cycle;Signal;HPM_P1;HPM_P2
2023/05/20 00:00:59;;;;;;;;;;;13.70;99.90;;;;;;5059553;28;20372;-85
2023/05/20 00:03:26;;;;;;;;;;;13.60;99.90;;;;;;5058151;28;19947;-87
2023/05/20 00:05:53;;;;;;;;;;;13.60;99.90;;;;;;5079800;28;19912;-85
2023/05/20 00:08:20;;;;;;;;;;;13.70;99.90;;;;;;5078666;28;19924;-85
2023/05/20 00:10:46;;;;;;;;;;;13.70;99.90;;;;;;5078117;28;19921;-85
2023/05/20 00:13:13;;;;;;;;;;;13.60;99.90;;;;;;5084161;28;19921;-84
2023/05/20 00:15:40;;;;;;;;;;;13.70;99.90;;;;;;5055733;28;19920;-85
2023/05/20 00:18:06;;;;;;;;;;;13.70;99.90;;;;;;5062725;28;19921;-84
2023/05/20 00:20:33;;;;;;;;;;;13.70;99.90;;;;;;5070601;28;20303;-84
2023/05/20 00:23:00;;;;;;;;;;;13.70;99.90;;;;;;5063793;28;19972;-84
2023/05/20 00:25:26;;;;;;;;;;;13.70;99.90;;;;;;5066115;28;19943;-85
2023/05/20 00:27:53;;;;;;;;;;;13.70;99.90;;;;;;5080081;28;19928;-86
2023/05/20 00:30:20;;;;;;;;;;;13.70;99.90;;;;;;5074353;28;19994;-85
2023/05/20 00:32:47;;;;;;;;;;;13.70;99.90;;;;;;5077689;28;19928;-86
2023/05/20 00:35:14;;;;;;;;;;;13.70;99.90;;;;;;5062901;28;19921;-88
2023/05/20 00:37:40;;;;;;;;;;;13.70;99.90;;;;;;5078318;28;19920;-85
2023/05/20 00:40:07;;;;;;;;;;;13.70;99.90;;;;;;5081885;28;19947;-85
2023/05/20 00:42:34;;;;;;;;;;;13.70;99.90;;;;;;5063763;28;19920;-83
2023/05/20 00:45:01;;;;;;;;;;;13.70;99.90;;;;;;5073751;28;19921;-84
2023/05/20 00:47:29;;;;;;;;;;;13.70;99.90;;;;;;5053723;28;19920;-86
2023/05/20 00:49:56;;;;;;;;;;;13.70;99.90;;;;;;5071196;28;19921;-86
2023/05/20 00:52:24;;;;;;;;;;;13.70;99.90;;;;;;5073137;28;19921;-83
2023/05/20 00:54:51;;;;;;;;;;;13.70;99.90;;;;;;5079674;28;19928;-86
2023/05/20 00:57:18;;;;;;;;;;;13.70;99.90;;;;;;5060466;28;20539;-85
2023/05/20 00:59:45;;;;;;;;;;;13.70;99.90;;;;;;5069118;28;19975;-85
2023/05/20 01:02:12;;;;;;;;;;;13.70;99.90;;;;;;5079403;28;19909;-86
2023/05/20 01:04:38;;;;;;;;;;;13.70;99.90;;;;;;5079420;28;19947;-85
2023/05/20 01:07:06;;;;;;;;;;;13.60;99.90;;;;;;5052223;28;19943;-84
2023/05/20 01:09:32;;;;;;;;;;;13.60;99.90;;;;;;5083160;28;19925;-85
2023/05/20 01:12:11;;;;;;;;;;;13.60;99.90;;;;;;5079563;28;20350;-85
2023/05/20 01:14:42;;;;;;;;;;;13.60;99.90;;;;;;5055727;28;20004;-82
2023/05/20 01:17:11;;;;;;;;;;;13.60;99.90;;;;;;5073169;28;20311;-85
2023/05/20 01:19:42;;;;;;;;;;;13.60;99.90;;;;;;5068053;28;19920;-84
2023/05/20 01:22:11;;;;;;;;;;;13.60;99.90;;;;;;5069732;28;19950;-85
2023/05/20 01:24:42;;;;;;;;;;;13.60;99.90;;;;;;5079512;28;19921;-84
2023/05/20 01:27:09;;;;;;;;;;;13.50;99.90;;;;;;5079938;28;20295;-82
2023/05/20 01:29:36;;;;;;;;;;;13.50;99.90;;;;;;5079033;28;19947;-85
2023/05/20 01:32:16;;;;;;;;;;;13.40;99.90;;;;;;5083639;28;19916;-87
2023/05/20 01:34:44;;;;;;;;;;;13.40;99.90;;;;;;5075851;28;19943;-84
2023/05/20 01:37:12;;;;;;;;;;;13.40;99.90;;;;;;5070110;28;19931;-83
2023/05/20 01:39:42;;;;;;;;;;;13.30;99.90;;;;;;5078148;28;19964;-83
2023/05/20 01:42:09;;;;;;;;;;;13.30;99.90;;;;;;5052873;28;20355;-84
2023/05/20 01:44:36;;;;;;;;;;;13.30;99.90;;;;;;5058152;28;19927;-84
2023/05/20 01:47:03;;;;;;;;;;;13.30;99.90;;;;;;5064666;28;19927;-85
2023/05/20 01:49:30;;;;;;;;;;;13.30;99.90;;;;;;5065339;28;20007;-86
2023/05/20 01:51:57;;;;;;;;;;;13.30;99.90;;;;;;5065779;28;19924;-85
2023/05/20 01:54:23;;;;;;;;;;;13.30;99.90;;;;;;5059261;28;20439;-84
2023/05/20 01:56:50;;;;;;;;;;;13.20;99.90;;;;;;5076039;28;19925;-85
2023/05/20 01:59:17;;;;;;;;;;;13.20;99.90;;;;;;5070162;28;19964;-84
2023/05/20 02:01:44;;;;;;;;;;;13.20;99.90;;;;;;5065906;28;20304;-85
2023/05/20 02:04:11;;;;;;;;;;;13.20;99.90;;;;;;5064213;28;19921;-83
2023/05/20 02:06:38;;;;;;;;;;;13.20;99.90;;;;;;5069741;28;20053;-85
2023/05/20 02:09:05;;;;;;;;;;;13.20;99.90;;;;;;5078619;28;19928;-84
2023/05/20 02:11:31;;;;;;;;;;;13.20;99.90;;;;;;5057446;28;19950;-85
2023/05/20 02:13:58;;;;;;;;;;;13.20;99.90;;;;;;5069801;28;19920;-84
2023/05/20 02:19:53;;;;;;;;;;;13.20;99.90;;;;;;5091240;28;19985;-75
2023/05/20 02:22:19;;;;;;;;;;;13.30;99.90;;;;;;5091415;28;20368;-75
2023/05/20 02:24:46;;;;;;;;;;;13.30;99.90;;;;;;5074244;28;19923;-75
2023/05/20 02:27:13;;;;;;;;;;;13.30;99.90;;;;;;5073863;28;19999;-75
2023/05/20 02:29:40;;;;;;;;;;;13.30;99.90;;;;;;5091940;28;20430;-76
2023/05/20 02:32:07;;;;;;;;;;;13.30;99.90;;;;;;5092085;28;19977;-75
2023/05/20 02:34:34;;;;;;;;;;;13.30;99.90;;;;;;5073943;28;19920;-76
2023/05/20 02:37:00;;;;;;;;;;;13.30;99.90;;;;;;5088350;28;20002;-76
2023/05/20 02:39:27;;;;;;;;;;;13.20;99.90;;;;;;5092226;28;19920;-75
2023/05/20 02:41:54;;;;;;;;;;;13.20;99.90;;;;;;5073952;28;19920;-75
2023/05/20 02:44:35;;;;;;;;;;;13.20;99.90;;;;;;5084756;28;19912;-76
2023/05/20 02:47:02;;;;;;;;;;;13.20;99.90;;;;;;5083303;28;19963;-76
2023/05/20 02:49:29;;;;;;;;;;;13.20;99.90;;;;;;5076804;28;19983;-76
2023/05/20 02:51:55;;;;;;;;;;;13.20;99.90;;;;;;5084076;28;20333;-77
2023/05/20 02:54:22;;;;;;;;;;;13.20;99.90;;;;;;5078218;28;19978;-76
2023/05/20 02:56:49;;;;;;;;;;;13.10;99.90;;;;;;5082306;28;19964;-76
2023/05/20 02:59:15;;;;;;;;;;;13.10;99.90;;;;;;5080181;28;19974;-76
2023/05/20 03:01:42;;;;;;;;;;;13.10;99.90;;;;;;5085760;28;19924;-76
2023/05/20 03:04:09;;;;;;;;;;;13.10;99.90;;;;;;5077534;28;19931;-76
2023/05/20 03:06:36;;;;;;;;;;;13.10;99.90;;;;;;5078002;28;19925;-76
2023/05/20 03:09:03;;;;;;;;;;;13.10;99.90;;;;;;5082535;28;19932;-76
2023/05/20 03:11:31;;;;;;;;;;;13.00;99.90;;;;;;5080131;28;19924;-76
2023/05/20 03:13:57;;;;;;;;;;;13.00;99.90;;;;;;5081805;28;19927;-76
2023/05/20 03:16:24;;;;;;;;;;;13.00;99.90;;;;;;5083378;28;20426;-76
2023/05/20 03:18:53;;;;;;;;;;;13.00;99.90;;;;;;5079949;28;19931;-76
2023/05/20 03:21:22;;;;;;;;;;;13.00;99.90;;;;;;5077109;28;19964;-76
2023/05/20 03:23:49;;;;;;;;;;;13.00;99.90;;;;;;5083790;28;19926;-76
2023/05/20 03:26:16;;;;;;;;;;;13.00;99.90;;;;;;5078164;28;19924;-76
2023/05/20 03:28:43;;;;;;;;;;;13.00;99.90;;;;;;5081396;28;19960;-76
2023/05/20 03:31:09;;;;;;;;;;;13.00;99.90;;;;;;5084496;28;19928;-76
2023/05/20 03:33:36;;;;;;;;;;;13.00;99.90;;;;;;5078862;28;19947;-76
2023/05/20 03:36:03;;;;;;;;;;;13.00;99.90;;;;;;5077241;28;20284;-76
2023/05/20 03:38:29;;;;;;;;;;;13.00;99.90;;;;;;5078969;28;19966;-76
2023/05/20 03:40:56;;;;;;;;;;;13.00;99.90;;;;;;5079962;28;19970;-76
2023/05/20 03:43:24;;;;;;;;;;;12.90;99.90;;;;;;5078908;28;19983;-76
2023/05/20 03:45:50;;;;;;;;;;;12.90;99.90;;;;;;5086152;28;19930;-76
2023/05/20 03:48:17;;;;;;;;;;;13.00;99.90;;;;;;5076700;28;20019;-76
2023/05/20 03:50:43;;;;;;;;;;;12.90;99.90;;;;;;5075986;28;20353;-76
2023/05/20 03:53:10;;;;;;;;;;;12.90;99.90;;;;;;5083715;28;20300;-76
2023/05/20 03:55:38;;;;;;;;;;;12.90;99.90;;;;;;5065777;28;19979;-76
2023/05/20 03:58:04;;;;;;;;;;;12.80;99.90;;;;;;5070218;28;19928;-76
2023/05/20 04:00:31;;;;;;;;;;;12.80;99.90;;;;;;5069208;28;19928;-76
2023/05/20 04:02:58;;;;;;;;;;;12.70;99.90;;;;;;5068972;28;20026;-76
2023/05/20 04:05:25;;;;;;;;;;;12.70;99.90;;;;;;5060043;28;20490;-76
2023/05/20 04:07:52;;;;;;;;;;;12.70;99.90;;;;;;5072907;28;19994;-77
2023/05/20 04:10:19;;;;;;;;;;;12.70;99.90;;;;;;5062402;28;20008;-76
2023/05/20 04:12:46;;;;;;;;;;;12.70;99.90;;;;;;5068820;28;20009;-76
2023/05/20 04:15:13;;;;;;;;;;;12.70;99.90;;;;;;5069600;28;19964;-76
2023/05/20 04:17:40;;;;;;;;;;;12.70;99.90;;;;;;5066942;28;19924;-76
2023/05/20 04:20:10;;;;;;;;;;;12.60;99.90;;;;;;5058073;28;19929;-76
2023/05/20 04:22:38;;;;;;;;;;;12.70;99.90;;;;;;5070834;28;19925;-76
2023/05/20 04:25:05;;;;;;;;;;;12.70;99.90;;;;;;5063908;28;19964;-76
2023/05/20 04:27:32;;;;;;;;;;;12.80;99.90;;;;;;5071410;28;19924;-76
2023/05/20 04:30:01;;;;;;;;;;;12.80;99.90;;;;;;5071256;28;19931;-76
2023/05/20 04:32:27;;;;;;;;;;;12.80;99.90;;;;;;5067139;28;19943;-76
2023/05/20 04:34:54;;;;;;;;;;;12.80;99.90;;;;;;5059276;28;19924;-76
2023/05/20 04:37:21;;;;;;;;;;;12.80;99.90;;;;;;5070152;28;19925;-76
2023/05/20 04:39:48;;;;;;;;;;;12.80;99.90;;;;;;5065687;28;19933;-76
2023/05/20 04:42:19;;;;;;;;;;;12.80;99.90;;;;;;5065531;28;19928;-76
2023/05/20 04:44:46;;;;;;;;;;;12.80;99.90;;;;;;5067400;28;20285;-76
2023/05/20 04:47:13;;;;;;;;;;;12.80;99.90;;;;;;5068106;28;19924;-76
2023/05/20 04:49:41;;;;;;;;;;;12.80;99.90;;;;;;5059056;28;19978;-76
2023/05/20 04:52:07;;;;;;;;;;;12.80;99.90;;;;;;5066265;28;19924;-76
2023/05/20 04:54:34;;;;;;;;;;;12.90;99.90;;;;;;5063335;28;20372;-76
2023/05/20 04:57:01;;;;;;;;;;;12.90;99.90;;;;;;5065370;28;20563;-76
2023/05/20 04:59:28;;;;;;;;;;;13.00;99.90;;;;;;5069332;28;20028;-76
2023/05/20 05:01:54;;;;;;;;;;;13.10;99.90;;;;;;5069503;28;19925;-76
2023/05/20 05:04:21;;;;;;;;;;;13.30;99.90;;;;;;5057675;28;19925;-76
2023/05/20 05:06:48;;;;;;;;;;;13.40;99.90;;;;;;5061099;28;19933;-76
2023/05/20 05:09:15;;;;;;;;;;;13.50;99.90;;;;;;5064276;28;19947;-76
2023/05/20 05:11:42;;;;;;;;;;;13.60;99.90;;;;;;5062791;28;19971;-76
2023/05/20 05:14:08;;;;;;;;;;;13.80;99.90;;;;;;5068233;28;19928;-76
2023/05/20 05:16:35;;;;;;;;;;;13.80;99.90;;;;;;5066090;28;20376;-77
2023/05/20 05:19:02;;;;;;;;;;;13.90;99.90;;;;;;5060562;28;19930;-76
2023/05/20 05:21:28;;;;;;;;;;;14.00;99.90;;;;;;5060041;28;19925;-76
2023/05/20 05:23:56;;;;;;;;;;;14.00;99.90;;;;;;5065330;28;20445;-77
2023/05/20 05:26:25;;;;;;;;;;;14.10;99.90;;;;;;5061530;28;19929;-76
2023/05/20 05:28:53;;;;;;;;;;;14.10;99.90;;;;;;5067327;28;19978;-76
2023/05/20 05:31:20;;;;;;;;;;;14.10;99.90;;;;;;5067800;28;19980;-76
2023/05/20 05:33:46;;;;;;;;;;;14.00;99.90;;;;;;5061684;28;20458;-76
2023/05/20 05:36:14;;;;;;;;;;;13.90;99.90;;;;;;5070568;28;19931;-76
2023/05/20 05:38:41;;;;;;;;;;;13.90;99.90;;;;;;5064178;28;19947;-76
2023/05/20 05:41:07;;;;;;;;;;;13.90;99.90;;;;;;5066751;28;20002;-76
2023/05/20 05:43:34;;;;;;;;;;;13.70;99.90;;;;;;5064822;28;20016;-76
2023/05/20 05:46:01;;;;;;;;;;;13.70;99.90;;;;;;5071325;28;20304;-76
2023/05/20 05:48:27;;;;;;;;;;;13.70;99.90;;;;;;5060551;28;19972;-76
2023/05/20 05:50:54;;;;;;;;;;;13.70;99.90;;;;;;5068714;28;20376;-76
2023/05/20 05:53:21;;;;;;;;;;;13.80;99.90;;;;;;5064994;28;19932;-77
2023/05/20 05:55:47;;;;;;;;;;;13.80;99.90;;;;;;5065385;28;19924;-76
2023/05/20 05:58:14;;;;;;;;;;;13.80;99.90;;;;;;5063915;28;19924;-76
2023/05/20 06:00:41;;;;;;;;;;;13.80;99.90;;;;;;5068152;28;19936;-76
2023/05/20 06:03:08;;;;;;;;;;;13.90;99.90;;;;;;5063720;28;19935;-76
2023/05/20 06:05:34;;;;;;;;;;;13.90;99.90;;;;;;5063069;28;19924;-76
2023/05/20 06:08:01;;;;;;;;;;;13.90;99.90;;;;;;5069016;28;19943;-77
2023/05/20 06:10:28;;;;;;;;;;;13.90;99.90;;;;;;5063214;28;19940;-76
2023/05/20 06:12:55;;;;;;;;;;;14.00;99.90;;;;;;5065645;28;19931;-76
2023/05/20 06:15:21;;;;;;;;;;;14.00;99.90;;;;;;5068977;28;19925;-76
2023/05/20 06:17:48;;;;;;;;;;;14.00;99.90;;;;;;5063518;28;19925;-77
2023/05/20 06:20:15;;;;;;;;;;;14.00;99.90;;;;;;5061080;28;19974;-76
2023/05/20 06:22:41;;;;;;;;;;;14.00;99.90;;;;;;5067828;28;19947;-76
2023/05/20 06:25:08;;;;;;;;;;;14.00;99.90;;;;;;5062593;28;19975;-76
2023/05/20 06:27:35;;;;;;;;;;;14.10;99.90;;;;;;5063040;28;20376;-76
2023/05/20 06:30:01;;;;;;;;;;;14.10;99.90;;;;;;5071089;28;20019;-76
2023/05/20 06:32:28;;;;;;;;;;;14.10;99.90;;;;;;5062696;28;19925;-76
2023/05/20 06:34:55;;;;;;;;;;;14.10;99.90;;;;;;5057309;28;19925;-76
2023/05/20 06:37:24;;;;;;;;;;;14.10;99.90;;;;;;5068548;28;19925;-75
2023/05/20 06:39:52;;;;;;;;;;;14.10;99.90;;;;;;5064089;28;20392;-76
2023/05/20 06:42:20;;;;;;;;;;;14.10;99.90;;;;;;5067092;28;19924;-76
2023/05/20 06:44:46;;;;;;;;;;;14.10;99.90;;;;;;5065253;28;19994;-76
2023/05/20 06:47:14;;;;;;;;;;;14.10;99.90;;;;;;5073359;28;20307;-76
2023/05/20 06:49:42;;;;;;;;;;;14.10;99.90;;;;;;5055288;28;19955;-76
2023/05/20 06:52:12;;;;;;;;;;;14.10;99.90;;;;;;5064063;28;19931;-76
2023/05/20 06:54:40;;;;;;;;;;;14.10;99.90;;;;;;5060628;28;19924;-75
2023/05/20 06:57:07;;;;;;;;;;;14.20;99.90;;;;;;5065155;28;20350;-76
2023/05/20 06:59:34;;;;;;;;;;;14.10;99.90;;;;;;5065858;28;20350;-76
2023/05/20 07:02:02;;;;;;;;;;;14.00;99.90;;;;;;5067251;28;19925;-76
2023/05/20 07:04:28;;;;;;;;;;;14.00;99.90;;;;;;5054732;28;19929;-76
2023/05/20 07:06:55;;;;;;;;;;;14.00;99.90;;;;;;5069149;28;19970;-76
2023/05/20 07:09:22;;;;;;;;;;;14.10;99.90;;;;;;5061496;28;20281;-76
2023/05/20 07:11:49;;;;;;;;;;;14.10;99.90;;;;;;5064491;28;19932;-76
2023/05/20 07:14:16;;;;;;;;;;;14.10;99.90;;;;;;5064895;28;20548;-77
2023/05/20 07:16:42;;;;;;;;;;;14.20;99.90;;;;;;5065651;28;19971;-76
2023/05/20 07:19:09;;;;;;;;;;;14.30;99.90;;;;;;5057739;28;19925;-76
2023/05/20 07:21:36;;;;;;;;;;;14.40;99.90;;;;;;5065877;28;20376;-77
2023/05/20 07:24:02;;;;;;;;;;;14.50;99.90;;;;;;5063102;28;20377;-77
2023/05/20 07:26:32;;;;;;;;;;;14.50;99.90;;;;;;5064220;28;19978;-76
2023/05/20 07:28:59;;;;;;;;;;;14.60;99.90;;;;;;5062993;28;20408;-76
2023/05/20 07:31:25;;;;;;;;;;;14.70;99.90;;;;;;5070049;28;19951;-77
2023/05/20 07:33:52;;;;;;;;;;;14.80;99.90;;;;;;5064949;28;19978;-77
2023/05/20 07:36:19;;;;;;;;;;;14.90;99.90;;;;;;5068607;28;19928;-77
2023/05/20 07:38:46;;;;;;;;;;;15.00;99.90;;;;;;5065570;28;19924;-77
2023/05/20 07:41:27;;;;;;;;;;;15.10;99.90;;;;;;5067515;28;20319;-77
2023/05/20 07:43:54;;;;;;;;;;;15.20;99.90;;;;;;5066656;28;20015;-77
2023/05/20 07:46:21;;;;;;;;;;;15.20;99.90;;;;;;5070145;28;19982;-77
2023/05/20 07:48:47;;;;;;;;;;;15.30;99.90;;;;;;5063776;28;19930;-76
2023/05/20 07:51:14;;;;;;;;;;;15.30;99.90;;;;;;5068339;28;19924;-77
2023/05/20 07:53:40;;;;;;;;;;;15.30;99.90;;;;;;5065015;28;19928;-77
2023/05/20 07:56:07;;;;;;;;;;;15.30;99.90;;;;;;5067520;28;19924;-78
2023/05/20 07:58:34;;;;;;;;;;;15.30;99.90;;;;;;5065875;28;19925;-77
2023/05/20 08:01:00;;;;;;;;;;;15.30;99.90;;;;;;5071534;28;20023;-77
2023/05/20 08:03:27;;;;;;;;;;;15.30;99.90;;;;;;5060481;28;19960;-77
2023/05/20 08:05:54;;;;;;;;;;;15.40;99.90;;;;;;5062415;28;19925;-77
2023/05/20 08:08:20;;;;;;;;;;;15.40;99.90;;;;;;5066630;28;19931;-77
2023/05/20 08:10:47;;;;;;;;;;;15.40;99.90;;;;;;5067735;28;19924;-77
2023/05/20 08:13:14;;;;;;;;;;;15.40;99.90;;;;;;5066588;28;19979;-77
2023/05/20 08:15:41;;;;;;;;;;;15.40;99.90;;;;;;5069159;28;20295;-77
2023/05/20 08:18:07;;;;;;;;;;;15.50;99.90;;;;;;5063286;28;19962;-77
2023/05/20 08:20:34;;;;;;;;;;;15.50;99.90;;;;;;5062010;28;19932;-77
2023/05/20 08:23:01;;;;;;;;;;;15.60;99.90;;;;;;5069823;28;19929;-77
2023/05/20 08:25:29;;;;;;;;;;;15.60;99.90;;;;;;5063960;28;19978;-76
2023/05/20 08:27:56;;;;;;;;;;;15.70;99.90;;;;;;5064890;28;19970;-77
2023/05/20 08:30:22;;;;;;;;;;;15.80;99.90;;;;;;5070983;28;20007;-77
2023/05/20 08:32:49;;;;;;;;;;;15.90;99.90;;;;;;5061955;28;19960;-77
2023/05/20 08:35:16;;;;;;;;;;;16.10;99.90;;;;;;5063199;28;19931;-77
2023/05/20 08:37:42;;;;;;;;;;;16.20;99.90;;;;;;5066057;28;20301;-77
2023/05/20 08:40:10;;;;;;;;;;;16.40;99.90;;;;;;5065760;28;19989;-77
2023/05/20 08:42:39;;;;;;;;;;;16.60;99.90;;;;;;5063152;28;19971;-77
2023/05/20 08:45:06;;;;;;;;;;;16.70;99.90;;;;;;5072115;28;19974;-77
2023/05/20 08:47:33;;;;;;;;;;;16.80;99.90;;;;;;5061403;28;19960;-77
2023/05/20 08:49:59;;;;;;;;;;;16.90;99.90;;;;;;5056516;28;20024;-79
2023/05/20 08:52:27;;;;;;;;;;;16.90;99.90;;;;;;5066891;28;20041;-79
2023/05/20 08:54:54;;;;;;;;;;;17.00;99.90;;;;;;5060172;28;20396;-78
2023/05/20 08:57:21;;;;;;;;;;;17.00;99.90;;;;;;5060788;28;19929;-77
2023/05/20 08:59:47;;;;;;;;;;;17.00;99.90;;;;;;5063940;28;20453;-78
2023/05/20 09:02:14;;;;;;;;;;;17.10;99.90;;;;;;5060530;28;19924;-78
2023/05/20 09:11:13;;;;;;;6.68;4.30;;;17.40;99.90;;;;;;5102424;27;20323;-76
2023/05/20 09:13:39;;;;;;;6.78;3.92;;;17.50;99.90;;;;;;5085589;28;20067;-76
2023/05/20 09:16:08;;;;;;;8.23;3.80;;;17.70;99.90;;;;;;5079876;28;20052;-75
2023/05/20 09:21:23;;;;;;;6.55;3.97;;;17.90;99.90;;;;;;5040044;28;20057;-76
2023/05/20 09:23:52;;;;;;;7.10;4.18;;;17.90;99.90;;;;;;5041306;28;20053;-77
2023/05/20 09:26:19;;;;;;;5.97;4.15;;;18.00;99.90;;;;;;5042079;28;20098;-76
2023/05/20 09:28:45;;;;;;;9.50;4.78;;;18.00;99.90;;;;;;5044361;28;20046;-77
2023/05/20 09:31:13;;;;;;;13.30;4.90;;;18.10;99.90;;;;;;5058644;28;20056;-78
2023/05/20 09:33:40;;;;;;;4.80;4.20;;;18.20;99.90;;;;;;5056232;28;20049;-77
2023/05/20 09:36:08;;;;;;;5.38;3.90;;;18.30;99.90;;;;;;5060948;28;20481;-76
2023/05/20 09:38:38;;;;;;;4.72;4.22;;;18.30;99.90;;;;;;5059141;28;20049;-78
2023/05/20 09:41:09;;;;;;;5.88;4.20;;;18.30;99.90;;;;;;5064392;28;20555;-77
2023/05/20 09:43:36;;;;;;;12.07;4.70;;;18.30;99.90;;;;;;5065506;28;20052;-78
2023/05/20 09:46:04;;;;;;;11.25;4.93;;;18.30;99.90;;;;;;5061468;28;20073;-77
2023/05/20 09:48:32;;;;;;;7.45;4.45;;;18.30;99.90;;;;;;5034716;28;20139;-76
2023/05/20 09:51:01;;;;;;;7.82;4.32;;;18.30;99.90;;;;;;5062367;28;20135;-78
2023/05/20 09:53:28;;;;;;;7.85;4.30;;;18.40;99.90;;;;;;5059607;28;20041;-78
2023/05/20 09:55:55;;;;;;;9.30;4.40;;;18.40;99.90;;;;;;5065670;28;20049;-77
2023/05/20 09:58:24;;;;;;;7.88;4.32;;;18.40;99.90;;;;;;5063619;28;20076;-78
2023/05/20 10:00:51;;;;;;;12.95;4.90;;;18.40;99.90;;;;;;5059549;28;20044;-76
2023/05/20 10:03:21;;;;;;;5.18;4.07;;;18.50;99.90;;;;;;5054870;28;20045;-76
2023/05/20 10:05:54;;;;;;;5.55;4.38;;;18.60;99.90;;;;;;5060250;28;20141;-75
2023/05/20 10:08:43;;;;;;;9.50;4.68;;;18.70;99.90;;;;;;5059543;28;20095;-78
2023/05/20 10:11:34;;;;;;;6.30;4.53;;;18.80;99.90;;;;;;5060824;28;20084;-77
2023/05/20 10:14:27;;;;;;;5.20;4.45;;;18.90;99.90;;;;;;5037005;28;20136;-76
2023/05/20 10:17:00;;;;;;;6.13;4.05;;;18.90;99.90;;;;;;5058561;28;20463;-76
2023/05/20 10:19:32;;;;;;;7.13;4.50;;;18.90;99.90;;;;;;5060997;28;20049;-77
2023/05/20 10:22:07;;;;;;;4.90;4.22;;;18.90;99.90;;;;;;5050145;28;20565;-76
2023/05/20 10:24:42;;;;;;;5.97;4.30;;;18.90;99.90;;;;;;5043867;28;20469;-77
2023/05/20 10:27:13;;;;;;;4.78;4.10;;;18.90;99.90;;;;;;5043877;28;20097;-77
2023/05/20 10:29:50;;;;;;;8.18;4.20;;;18.80;99.90;;;;;;5032027;28;22074;-76
2023/05/20 10:32:23;;;;;;;6.60;4.80;;;18.90;99.90;;;;;;5041885;28;20045;-77
2023/05/20 10:34:51;;;;;;;7.03;4.43;;;18.90;99.90;;;;;;5042845;28;20045;-78
2023/05/20 10:37:26;;;;;;;7.00;4.57;;;18.90;99.90;;;;;;5045737;28;20501;-77
2023/05/20 10:40:04;;;;;;;7.03;4.38;;;18.90;99.90;;;;;;5047896;28;20079;-76
2023/05/20 10:42:31;;;;;;;5.22;4.72;;;18.80;99.90;;;;;;5046671;28;20044;-76
2023/05/20 10:44:58;;;;;;;4.40;4.00;;;18.70;99.90;;;;;;5047128;28;20527;-76
2023/05/20 10:47:25;;;;;;;7.25;4.32;;;18.70;99.90;;;;;;5038243;28;20100;-77
2023/05/20 10:49:52;;;;;;;7.55;4.72;;;18.70;99.90;;;;;;5046083;28;20041;-78
2023/05/20 10:52:19;;;;;;;5.95;4.55;;;18.70;99.90;;;;;;5045675;28;20045;-76
2023/05/20 10:54:56;;;;;;;8.93;4.65;;;18.70;99.90;;;;;;5045360;28;20049;-77
2023/05/20 10:57:26;;;;;;;6.45;4.40;;;18.70;99.90;;;;;;5044962;28;20103;-77
2023/05/20 10:59:54;;;;;;;6.55;4.45;;;18.90;99.90;;;;;;5049558;28;20190;-77
2023/05/20 11:02:27;;;;;;;5.82;4.40;;;19.00;99.90;;;;;;5030744;28;20119;-78
2023/05/20 11:04:57;;;;;;;4.63;3.95;;;19.20;99.90;;;;;;5047574;28;20045;-77
2023/05/20 11:07:28;;;;;;;8.23;4.35;;;19.30;99.90;;;;;;5046098;28;20504;-77
2023/05/20 11:09:56;;;;;;;4.72;4.20;;;19.50;99.90;;;;;;5044190;28;20080;-77
2023/05/20 11:12:24;;;;;;;6.57;4.07;;;19.50;99.90;;;;;;5043714;28;20050;-77
2023/05/20 11:14:51;;;;;;;6.68;4.22;;;19.50;99.90;;;;;;5046358;28;20041;-77
2023/05/20 11:17:19;;;;;;;4.55;4.10;;;19.40;99.90;;;;;;5025344;28;20137;-76
2023/05/20 11:19:47;;;;;;;4.75;3.92;;;19.40;99.90;;;;;;5028896;28;20053;-77
2023/05/20 11:22:13;;;;;;;4.85;4.20;;;19.40;99.90;;;;;;5040391;28;20107;-77
2023/05/20 11:24:40;;;;;;;4.78;4.20;;;19.50;99.90;;;;;;5042663;28;20072;-76
2023/05/20 11:27:08;;;;;;;6.10;3.90;;;19.60;99.90;;;;;;5044631;28;20174;-77
2023/05/20 11:29:34;;;;;;;7.57;4.07;;;19.70;99.90;;;;;;5044489;28;20049;-76
2023/05/20 11:32:01;;;;;;;6.00;4.40;;;19.70;99.90;;;;;;5046013;28;20068;-77
2023/05/20 11:34:35;;;;;;;4.15;3.75;;;19.70;99.90;;;;;;5034491;28;20042;-76
2023/05/20 11:37:08;;;;;;;4.35;3.78;;;19.80;99.90;;;;;;5047904;28;20049;-76
2023/05/20 11:39:36;;;;;;;4.38;3.97;;;19.80;99.90;;;;;;5045998;28;20041;-75
2023/05/20 11:42:04;;;;;;;4.85;4.00;;;19.80;99.90;;;;;;5037769;28;20421;-76
2023/05/20 11:44:32;;;;;;;4.95;3.85;;;19.90;99.90;;;;;;5026507;28;20090;-75
2023/05/20 11:47:00;;;;;;;4.10;3.50;;;20.00;99.90;;;;;;5040736;28;20148;-76
2023/05/20 11:49:27;;;;;;;4.90;4.13;;;20.10;99.90;;;;;;5019715;28;20061;-76
2023/05/20 11:51:55;;;;;;;5.97;3.85;;;20.20;99.90;;;;;;5048596;28;20115;-78
2023/05/20 11:54:23;;;;;;;4.65;3.72;;;20.20;99.90;;;;;;5025904;28;20168;-76
2023/05/20 11:56:50;;;;;;;4.22;3.38;;;20.10;99.90;;;;;;5044097;28;20045;-77
2023/05/20 11:59:17;;;;;;;5.00;3.92;;;20.10;99.90;;;;;;5048359;28;20036;-76
2023/05/20 12:01:44;;;;;;;6.78;4.03;;;20.10;99.90;;;;;;5043493;28;20505;-78
2023/05/20 12:04:15;;;;;;;5.38;3.80;;;20.10;99.90;;;;;;5040708;28;20060;-75
2023/05/20 12:06:42;;;;;;;5.38;4.20;;;20.20;99.90;;;;;;5043670;28;20050;-76
2023/05/20 12:09:10;;;;;;;6.78;3.83;;;20.40;99.90;;;;;;5047934;28;20463;-77
2023/05/20 12:11:39;;;;;;;5.63;3.90;;;20.60;99.90;;;;;;5034388;28;20042;-78
2023/05/20 12:14:07;;;;;;;4.22;3.83;;;20.60;99.90;;;;;;5043981;28;20124;-76
2023/05/20 12:16:35;;;;;;;4.78;4.03;;;20.60;99.90;;;;;;5041088;28;20045;-78
2023/05/20 12:19:02;;;;;;;4.30;3.65;;;20.60;99.90;;;;;;5039512;28;20052;-77
2023/05/20 12:21:30;;;;;;;5.20;3.60;;;20.60;99.90;;;;;;5042028;28;20079;-77
2023/05/20 12:24:00;;;;;;;5.13;3.55;;;20.60;99.90;;;;;;5047863;28;20504;-77
2023/05/20 12:26:28;;;;;;;6.13;3.78;;;20.70;99.90;;;;;;5045363;28;20045;-78
2023/05/20 12:28:56;;;;;;;5.88;4.05;;;20.70;99.90;;;;;;5045734;28;20045;-77
2023/05/20 12:31:24;;;;;;;7.15;3.90;;;20.70;99.90;;;;;;5026305;28;20095;-77
2023/05/20 12:33:51;;;;;;;5.03;3.85;;;20.80;99.90;;;;;;5039712;28;20079;-78
2023/05/20 12:36:18;;;;;;;7.80;3.80;;;20.90;99.90;;;;;;5047472;28;20535;-78
2023/05/20 12:38:45;;;;;;;5.25;3.80;;;21.00;99.90;;;;;;5044676;28;20417;-77
2023/05/20 12:41:12;;;;;;;5.03;3.72;;;20.90;99.90;;;;;;5047784;28;20402;-78
2023/05/20 12:43:39;;;;;;;4.75;3.42;;;20.90;99.90;;;;;;5038812;28;20091;-78
2023/05/20 12:46:05;;;;;;;4.07;3.65;;;20.90;99.90;;;;;;5044820;28;20092;-76
2023/05/20 12:48:32;;;;;;;4.00;3.40;;;20.90;99.90;;;;;;5038936;28;20045;-78
2023/05/20 12:50:59;;;;;;;5.15;3.60;;;20.80;99.90;;;;;;5044728;28;20060;-77
2023/05/20 12:53:26;;;;;;;3.60;3.20;;;20.80;99.90;;;;;;5048748;28;20041;-78
2023/05/20 12:55:53;;;;;;;5.75;3.35;;;20.90;99.90;;;;;;5043968;28;20037;-77
2023/05/20 12:58:20;;;;;;;5.38;3.90;;;20.90;99.90;;;;;;5038439;28;20049;-78
2023/05/20 13:00:46;;;;;;;5.63;3.58;;;20.80;99.90;;;;;;5049526;28;20041;-78
2023/05/20 13:03:13;;;;;;;5.15;3.72;;;20.80;99.90;;;;;;5043786;28;20108;-78
2023/05/20 13:05:40;;;;;;;4.78;3.28;;;20.80;99.90;;;;;;5043042;28;20081;-78
2023/05/20 13:08:08;;;;;;;6.18;3.17;;;20.90;99.90;;;;;;5047975;28;20049;-78
2023/05/20 13:10:35;;;;;;;4.90;3.42;;;21.00;99.90;;;;;;5045749;28;20069;-77
2023/05/20 13:13:03;;;;;;;5.53;3.53;;;21.00;99.90;;;;;;5040817;28;20501;-77
2023/05/20 13:15:31;;;;;;;3.78;3.38;;;21.00;99.90;;;;;;5052184;28;20424;-77
2023/05/20 13:18:00;;;;;;;4.25;3.25;;;21.10;99.90;;;;;;5044506;28;20038;-77
2023/05/20 13:20:28;;;;;;;5.85;3.40;;;21.10;99.90;;;;;;5041719;28;20106;-77
2023/05/20 13:22:54;;;;;;;4.47;3.08;;;21.10;99.90;;;;;;5050646;28;20417;-77
2023/05/20 13:25:21;;;;;;;5.05;3.53;;;21.20;99.90;;;;;;5049507;28;20483;-77
2023/05/20 13:27:48;;;;;;;10.30;3.40;;;21.30;99.90;;;;;;5041934;28;20059;-77
2023/05/20 13:30:14;;;;;;;4.45;3.35;;;21.40;99.90;;;;;;5049568;28;20059;-77
2023/05/20 13:32:41;;;;;;;4.75;3.67;;;21.40;99.90;;;;;;5042224;28;20060;-78
2023/05/20 13:35:08;;;;;;;4.75;3.40;;;21.40;99.90;;;;;;5025841;28;20525;-77
2023/05/20 13:37:35;;;;;;;6.00;3.30;;;21.30;99.90;;;;;;5047202;28;20144;-77
2023/05/20 13:40:02;;;;;;;4.97;3.15;;;21.40;99.90;;;;;;5034413;28;20049;-77
2023/05/20 13:42:28;;;;;;;4.43;3.40;;;21.40;99.90;;;;;;5044292;28;20038;-77
2023/05/20 13:44:55;;;;;;;5.05;3.40;;;21.40;99.90;;;;;;5043568;28;20041;-77
2023/05/20 13:47:22;;;;;;;3.28;2.97;;;21.40;99.90;;;;;;5046327;28;20037;-77
2023/05/20 13:49:49;;;;;;;7.72;3.17;;;21.30;99.90;;;;;;5040497;28;20079;-77
2023/05/20 13:52:16;;;;;;;4.25;3.28;;;21.30;99.90;;;;;;5044378;28;20036;-77
2023/05/20 13:54:45;;;;;;;3.42;2.90;;;21.40;99.90;;;;;;5045159;28;20049;-77
2023/05/20 13:57:12;;;;;;;5.53;3.53;;;21.30;99.90;;;;;;5047311;28;20417;-77
2023/05/20 13:59:39;;;;;;;5.22;3.25;;;21.30;99.90;;;;;;5044406;28;20075;-76